sensor_id;sensor_type;location;lat;lon;timestamp;P1;durP1;ratioP1;P2;durP2;ratioP2
7324;SDS011;3703;48.016;7.802;2023-08-21T00:01:42;14.63;;;10.90;;
7324;SDS011;3703;48.016;7.802;2023-08-21T00:04:09;12.87;;;9.77;;
7324;SDS011;3703;48.016;7.802;2023-08-21T00:06:36;12.13;;;10.40;;
7324;SDS011;3703;48.016;7.802;2023-08-21T00:09:03;11.90;;;10.70;;
7324;SDS011;3703;48.016;7.802;2023-08-21T00:11:31;11.83;;;10.50;;
7324;SDS011;3703;48.016;7.802;2023-08-21T00:13:58;12.50;;;10.40;;
7324;SDS011;3703;48.016;7.802;2023-08-21T00:16:26;13.53;;;10.40;;
7324;SDS011;3703;48.016;7.802;2023-08-21T00:18:54;12.50;;;10.60;;
7324;SDS011;3703;48.016;7.802;2023-08-21T00:21:21;13.60;;;11.23;;
7324;SDS011;3703;48.016;7.802;2023-08-21T00:23:48;10.93;;;9.83;;
7324;SDS011;3703;48.016;7.802;2023-08-21T00:26:15;12.70;;;10.30;;
7324;SDS011;3703;48.016;7.802;2023-08-21T00:28:42;11.93;;;10.53;;
7324;SDS011;3703;48.016;7.802;2023-08-21T00:31:09;13.30;;;10.50;;
7324;SDS011;3703;48.016;7.802;2023-08-21T00:33:38;12.13;;;10.67;;
7324;SDS011;3703;48.016;7.802;2023-08-21T00:36:05;12.23;;;10.30;;
7324;SDS011;3703;48.016;7.802;2023-08-21T00:38:32;13.40;;;10.83;;
7324;SDS011;3703;48.016;7.802;2023-08-21T00:40:59;11.17;;;10.00;;
7324;SDS011;3703;48.016;7.802;2023-08-21T00:43:26;12.00;;;10.43;;
7324;SDS011;3703;48.016;7.802;2023-08-21T00:45:53;11.07;;;9.97;;
7324;SDS011;3703;48.016;7.802;2023-08-21T00:48:21;12.60;;;10.53;;
7324;SDS011;3703;48.016;7.802;2023-08-21T00:50:50;11.40;;;10.20;;
7324;SDS011;3703;48.016;7.802;2023-08-21T00:53:18;12.83;;;10.97;;
7324;SDS011;3703;48.016;7.802;2023-08-21T00:55:46;14.40;;;11.10;;
7324;SDS011;3703;48.016;7.802;2023-08-21T00:58:13;15.17;;;11.33;;
7324;SDS011;3703;48.016;7.802;2023-08-21T01:00:41;12.40;;;11.10;;
7324;SDS011;3703;48.016;7.802;2023-08-21T01:03:10;12.17;;;10.70;;
7324;SDS011;3703;48.016;7.802;2023-08-21T01:05:37;13.20;;;10.90;;
7324;SDS011;3703;48.016;7.802;2023-08-21T01:08:06;13.73;;;10.87;;
7324;SDS011;3703;48.016;7.802;2023-08-21T01:10:42;12.13;;;10.27;;
7324;SDS011;3703;48.016;7.802;2023-08-21T01:13:22;12.07;;;10.77;;
7324;SDS011;3703;48.016;7.802;2023-08-21T01:16:01;14.23;;;11.47;;
7324;SDS011;3703;48.016;7.802;2023-08-21T01:18:31;13.57;;;10.97;;
7324;SDS011;3703;48.016;7.802;2023-08-21T01:21:01;15.33;;;10.57;;
7324;SDS011;3703;48.016;7.802;2023-08-21T01:23:34;13.33;;;10.13;;
7324;SDS011;3703;48.016;7.802;2023-08-21T01:26:01;14.10;;;10.73;;
7324;SDS011;3703;48.016;7.802;2023-08-21T01:28:29;12.03;;;10.80;;
7324;SDS011;3703;48.016;7.802;2023-08-21T01:30:59;12.90;;;10.60;;
7324;SDS011;3703;48.016;7.802;2023-08-21T01:33:30;11.67;;;10.47;;
7324;SDS011;3703;48.016;7.802;2023-08-21T01:36:03;12.37;;;10.37;;
7324;SDS011;3703;48.016;7.802;2023-08-21T01:38:31;13.50;;;11.57;;
7324;SDS011;3703;48.016;7.802;2023-08-21T01:41:01;13.63;;;11.07;;
7324;SDS011;3703;48.016;7.802;2023-08-21T01:43:28;13.80;;;10.33;;
7324;SDS011;3703;48.016;7.802;2023-08-21T01:45:56;13.70;;;10.93;;
7324;SDS011;3703;48.016;7.802;2023-08-21T01:48:23;11.97;;;10.67;;
7324;SDS011;3703;48.016;7.802;2023-08-21T01:50:50;12.47;;;10.67;;
7324;SDS011;3703;48.016;7.802;2023-08-21T01:53:17;12.17;;;10.57;;
7324;SDS011;3703;48.016;7.802;2023-08-21T01:55:45;12.83;;;10.43;;
7324;SDS011;3703;48.016;7.802;2023-08-21T01:58:14;11.70;;;10.60;;
7324;SDS011;3703;48.016;7.802;2023-08-21T02:00:41;10.67;;;9.60;;
7324;SDS011;3703;48.016;7.802;2023-08-21T02:03:08;13.10;;;11.37;;
7324;SDS011;3703;48.016;7.802;2023-08-21T02:05:38;11.90;;;10.50;;
7324;SDS011;3703;48.016;7.802;2023-08-21T02:08:05;11.57;;;10.37;;
7324;SDS011;3703;48.016;7.802;2023-08-21T02:10:35;12.67;;;10.73;;
7324;SDS011;3703;48.016;7.802;2023-08-21T02:13:03;13.67;;;10.67;;
7324;SDS011;3703;48.016;7.802;2023-08-21T02:15:31;14.93;;;11.30;;
7324;SDS011;3703;48.016;7.802;2023-08-21T02:17:58;12.83;;;10.53;;
7324;SDS011;3703;48.016;7.802;2023-08-21T02:20:25;13.70;;;11.00;;
7324;SDS011;3703;48.016;7.802;2023-08-21T02:22:52;15.60;;;10.97;;
7324;SDS011;3703;48.016;7.802;2023-08-21T02:25:20;13.03;;;11.63;;
7324;SDS011;3703;48.016;7.802;2023-08-21T02:28:07;12.10;;;10.80;;
7324;SDS011;3703;48.016;7.802;2023-08-21T02:30:53;15.20;;;10.80;;
7324;SDS011;3703;48.016;7.802;2023-08-21T02:33:39;12.17;;;10.87;;
7324;SDS011;3703;48.016;7.802;2023-08-21T02:36:24;12.13;;;10.13;;
7324;SDS011;3703;48.016;7.802;2023-08-21T02:39:10;11.63;;;10.37;;
7324;SDS011;3703;48.016;7.802;2023-08-21T02:41:56;12.10;;;10.90;;
7324;SDS011;3703;48.016;7.802;2023-08-21T02:44:43;12.33;;;10.90;;
7324;SDS011;3703;48.016;7.802;2023-08-21T02:47:29;12.03;;;10.70;;
7324;SDS011;3703;48.016;7.802;2023-08-21T02:52:47;13.30;;;10.87;;
7324;SDS011;3703;48.016;7.802;2023-08-21T02:55:33;15.40;;;10.67;;
7324;SDS011;3703;48.016;7.802;2023-08-21T02:58:19;12.90;;;10.50;;
7324;SDS011;3703;48.016;7.802;2023-08-21T03:01:06;14.17;;;11.20;;
7324;SDS011;3703;48.016;7.802;2023-08-21T03:03:52;15.20;;;11.33;;
7324;SDS011;3703;48.016;7.802;2023-08-21T03:06:37;12.30;;;10.93;;
7324;SDS011;3703;48.016;7.802;2023-08-21T03:09:23;13.47;;;11.10;;
7324;SDS011;3703;48.016;7.802;2023-08-21T03:12:09;14.60;;;10.50;;
7324;SDS011;3703;48.016;7.802;2023-08-21T03:14:55;12.53;;;11.23;;
7324;SDS011;3703;48.016;7.802;2023-08-21T03:17:42;12.83;;;11.07;;
7324;SDS011;3703;48.016;7.802;2023-08-21T03:20:28;13.33;;;11.07;;
7324;SDS011;3703;48.016;7.802;2023-08-21T03:23:14;11.93;;;10.70;;
7324;SDS011;3703;48.016;7.802;2023-08-21T03:25:59;12.30;;;10.83;;
7324;SDS011;3703;48.016;7.802;2023-08-21T03:28:45;12.30;;;10.53;;
7324;SDS011;3703;48.016;7.802;2023-08-21T03:31:30;12.83;;;10.97;;
7324;SDS011;3703;48.016;7.802;2023-08-21T03:34:18;13.30;;;10.53;;
7324;SDS011;3703;48.016;7.802;2023-08-21T03:37:04;12.50;;;11.20;;
7324;SDS011;3703;48.016;7.802;2023-08-21T03:39:49;13.13;;;11.23;;
7324;SDS011;3703;48.016;7.802;2023-08-21T03:42:35;12.27;;;10.90;;
7324;SDS011;3703;48.016;7.802;2023-08-21T03:45:20;15.03;;;12.47;;
7324;SDS011;3703;48.016;7.802;2023-08-21T03:48:06;13.00;;;10.60;;
7324;SDS011;3703;48.016;7.802;2023-08-21T03:50:53;12.30;;;11.00;;
7324;SDS011;3703;48.016;7.802;2023-08-21T03:53:39;12.07;;;10.70;;
7324;SDS011;3703;48.016;7.802;2023-08-21T03:56:25;11.60;;;10.40;;
7324;SDS011;3703;48.016;7.802;2023-08-21T03:59:11;12.30;;;10.53;;
7324;SDS011;3703;48.016;7.802;2023-08-21T04:01:56;12.23;;;10.30;;
7324;SDS011;3703;48.016;7.802;2023-08-21T04:04:23;11.97;;;10.77;;
7324;SDS011;3703;48.016;7.802;2023-08-21T04:06:52;14.30;;;11.13;;
7324;SDS011;3703;48.016;7.802;2023-08-21T04:09:19;11.67;;;10.47;;
7324;SDS011;3703;48.016;7.802;2023-08-21T04:11:46;11.50;;;10.30;;
7324;SDS011;3703;48.016;7.802;2023-08-21T04:14:14;12.87;;;10.53;;
7324;SDS011;3703;48.016;7.802;2023-08-21T04:16:41;14.10;;;11.33;;
7324;SDS011;3703;48.016;7.802;2023-08-21T04:19:08;15.07;;;11.70;;
7324;SDS011;3703;48.016;7.802;2023-08-21T04:21:35;15.67;;;10.53;;
7324;SDS011;3703;48.016;7.802;2023-08-21T04:24:04;12.13;;;10.90;;
7324;SDS011;3703;48.016;7.802;2023-08-21T04:26:31;13.73;;;11.07;;
7324;SDS011;3703;48.016;7.802;2023-08-21T04:28:58;12.73;;;10.77;;
7324;SDS011;3703;48.016;7.802;2023-08-21T04:31:26;12.77;;;11.03;;
7324;SDS011;3703;48.016;7.802;2023-08-21T04:33:53;11.43;;;10.33;;
7324;SDS011;3703;48.016;7.802;2023-08-21T04:36:21;14.03;;;11.30;;
7324;SDS011;3703;48.016;7.802;2023-08-21T04:38:48;12.47;;;11.03;;
7324;SDS011;3703;48.016;7.802;2023-08-21T04:41:16;12.63;;;11.13;;
7324;SDS011;3703;48.016;7.802;2023-08-21T04:43:43;13.50;;;11.23;;
7324;SDS011;3703;48.016;7.802;2023-08-21T04:46:10;13.27;;;11.07;;
7324;SDS011;3703;48.016;7.802;2023-08-21T04:48:37;11.97;;;10.67;;
7324;SDS011;3703;48.016;7.802;2023-08-21T04:51:04;15.07;;;11.27;;
7324;SDS011;3703;48.016;7.802;2023-08-21T04:53:32;14.53;;;10.93;;
7324;SDS011;3703;48.016;7.802;2023-08-21T04:55:59;15.97;;;11.10;;
7324;SDS011;3703;48.016;7.802;2023-08-21T04:58:27;17.37;;;10.00;;
7324;SDS011;3703;48.016;7.802;2023-08-21T05:00:55;25.47;;;12.33;;
7324;SDS011;3703;48.016;7.802;2023-08-21T05:03:23;20.87;;;11.47;;
7324;SDS011;3703;48.016;7.802;2023-08-21T05:05:53;14.27;;;10.50;;
7324;SDS011;3703;48.016;7.802;2023-08-21T05:08:21;26.03;;;12.03;;
7324;SDS011;3703;48.016;7.802;2023-08-21T05:10:53;23.60;;;11.97;;
7324;SDS011;3703;48.016;7.802;2023-08-21T05:13:41;21.63;;;11.90;;
7324;SDS011;3703;48.016;7.802;2023-08-21T05:16:27;20.20;;;10.80;;
7324;SDS011;3703;48.016;7.802;2023-08-21T05:19:13;14.13;;;11.70;;
7324;SDS011;3703;48.016;7.802;2023-08-21T05:21:59;15.83;;;11.13;;
7324;SDS011;3703;48.016;7.802;2023-08-21T05:24:45;14.80;;;11.50;;
7324;SDS011;3703;48.016;7.802;2023-08-21T05:27:30;18.83;;;11.63;;
7324;SDS011;3703;48.016;7.802;2023-08-21T05:30:17;34.50;;;12.37;;
7324;SDS011;3703;48.016;7.802;2023-08-21T05:33:04;18.80;;;11.60;;
7324;SDS011;3703;48.016;7.802;2023-08-21T05:35:49;31.43;;;11.60;;
7324;SDS011;3703;48.016;7.802;2023-08-21T05:38:35;22.93;;;11.33;;
7324;SDS011;3703;48.016;7.802;2023-08-21T05:41:21;37.93;;;12.67;;
7324;SDS011;3703;48.016;7.802;2023-08-21T05:44:06;27.30;;;11.43;;
7324;SDS011;3703;48.016;7.802;2023-08-21T05:46:53;17.90;;;10.43;;
7324;SDS011;3703;48.016;7.802;2023-08-21T05:49:39;16.83;;;11.63;;
7324;SDS011;3703;48.016;7.802;2023-08-21T05:52:25;18.23;;;10.27;;
7324;SDS011;3703;48.016;7.802;2023-08-21T05:55:11;15.70;;;9.90;;
7324;SDS011;3703;48.016;7.802;2023-08-21T05:57:57;20.97;;;10.60;;
7324;SDS011;3703;48.016;7.802;2023-08-21T06:00:42;13.97;;;11.23;;
7324;SDS011;3703;48.016;7.802;2023-08-21T06:03:11;21.47;;;12.17;;
7324;SDS011;3703;48.016;7.802;2023-08-21T06:05:38;20.33;;;11.10;;
7324;SDS011;3703;48.016;7.802;2023-08-21T06:08:05;14.87;;;10.63;;
7324;SDS011;3703;48.016;7.802;2023-08-21T06:10:33;15.50;;;11.00;;
7324;SDS011;3703;48.016;7.802;2023-08-21T06:13:01;28.87;;;11.10;;
7324;SDS011;3703;48.016;7.802;2023-08-21T06:15:28;18.70;;;11.13;;
7324;SDS011;3703;48.016;7.802;2023-08-21T06:17:57;24.33;;;12.50;;
7324;SDS011;3703;48.016;7.802;2023-08-21T06:20:26;14.67;;;10.50;;
7324;SDS011;3703;48.016;7.802;2023-08-21T06:22:53;18.47;;;11.17;;
7324;SDS011;3703;48.016;7.802;2023-08-21T06:25:20;13.20;;;11.03;;
7324;SDS011;3703;48.016;7.802;2023-08-21T06:27:47;15.67;;;11.57;;
7324;SDS011;3703;48.016;7.802;2023-08-21T06:30:14;13.53;;;11.27;;
7324;SDS011;3703;48.016;7.802;2023-08-21T06:32:42;16.30;;;10.90;;
7324;SDS011;3703;48.016;7.802;2023-08-21T06:35:09;14.93;;;11.63;;
7324;SDS011;3703;48.016;7.802;2023-08-21T06:37:37;14.03;;;12.10;;
7324;SDS011;3703;48.016;7.802;2023-08-21T06:40:05;13.27;;;11.00;;
7324;SDS011;3703;48.016;7.802;2023-08-21T06:42:34;15.67;;;12.10;;
7324;SDS011;3703;48.016;7.802;2023-08-21T06:45:02;13.80;;;12.07;;
7324;SDS011;3703;48.016;7.802;2023-08-21T06:47:30;22.30;;;11.67;;
7324;SDS011;3703;48.016;7.802;2023-08-21T06:49:57;23.07;;;10.73;;
7324;SDS011;3703;48.016;7.802;2023-08-21T06:52:25;16.17;;;11.60;;
7324;SDS011;3703;48.016;7.802;2023-08-21T06:54:54;16.50;;;10.40;;
7324;SDS011;3703;48.016;7.802;2023-08-21T06:57:21;15.03;;;11.53;;
7324;SDS011;3703;48.016;7.802;2023-08-21T06:59:49;15.40;;;10.03;;
7324;SDS011;3703;48.016;7.802;2023-08-21T07:02:16;14.13;;;11.20;;
7324;SDS011;3703;48.016;7.802;2023-08-21T07:04:43;15.93;;;11.83;;
7324;SDS011;3703;48.016;7.802;2023-08-21T07:07:10;14.77;;;11.60;;
7324;SDS011;3703;48.016;7.802;2023-08-21T07:09:37;16.33;;;12.10;;
7324;SDS011;3703;48.016;7.802;2023-08-21T07:12:06;16.13;;;11.50;;
7324;SDS011;3703;48.016;7.802;2023-08-21T07:14:33;25.73;;;12.90;;
7324;SDS011;3703;48.016;7.802;2023-08-21T07:17:00;14.33;;;11.23;;
7324;SDS011;3703;48.016;7.802;2023-08-21T07:19:27;12.73;;;10.33;;
7324;SDS011;3703;48.016;7.802;2023-08-21T07:21:54;14.30;;;11.77;;
7324;SDS011;3703;48.016;7.802;2023-08-21T07:24:21;14.97;;;11.20;;
7324;SDS011;3703;48.016;7.802;2023-08-21T07:26:49;12.63;;;10.57;;
7324;SDS011;3703;48.016;7.802;2023-08-21T07:29:17;12.97;;;11.37;;
7324;SDS011;3703;48.016;7.802;2023-08-21T07:31:44;14.87;;;10.23;;
7324;SDS011;3703;48.016;7.802;2023-08-21T07:34:11;17.50;;;11.10;;
7324;SDS011;3703;48.016;7.802;2023-08-21T07:36:38;12.87;;;10.67;;
7324;SDS011;3703;48.016;7.802;2023-08-21T07:39:06;14.77;;;10.83;;
7324;SDS011;3703;48.016;7.802;2023-08-21T07:41:33;16.30;;;10.87;;
7324;SDS011;3703;48.016;7.802;2023-08-21T07:44:00;13.40;;;10.53;;
7324;SDS011;3703;48.016;7.802;2023-08-21T07:46:29;13.30;;;10.60;;
7324;SDS011;3703;48.016;7.802;2023-08-21T07:48:56;14.20;;;10.37;;
7324;SDS011;3703;48.016;7.802;2023-08-21T07:51:23;13.87;;;10.80;;
7324;SDS011;3703;48.016;7.802;2023-08-21T07:53:50;13.23;;;10.77;;
7324;SDS011;3703;48.016;7.802;2023-08-21T07:56:18;12.47;;;10.20;;
7324;SDS011;3703;48.016;7.802;2023-08-21T07:58:45;15.70;;;10.40;;
7324;SDS011;3703;48.016;7.802;2023-08-21T08:01:12;16.77;;;10.57;;
7324;SDS011;3703;48.016;7.802;2023-08-21T08:03:41;14.77;;;10.80;;
7324;SDS011;3703;48.016;7.802;2023-08-21T08:06:08;13.23;;;9.73;;
7324;SDS011;3703;48.016;7.802;2023-08-21T08:08:35;13.43;;;10.47;;
7324;SDS011;3703;48.016;7.802;2023-08-21T08:11:03;13.07;;;9.43;;
7324;SDS011;3703;48.016;7.802;2023-08-21T08:13:31;14.37;;;10.30;;
7324;SDS011;3703;48.016;7.802;2023-08-21T08:15:58;11.60;;;10.03;;
7324;SDS011;3703;48.016;7.802;2023-08-21T08:18:26;12.80;;;10.77;;
7324;SDS011;3703;48.016;7.802;2023-08-21T08:20:54;12.80;;;10.67;;
7324;SDS011;3703;48.016;7.802;2023-08-21T08:23:21;11.10;;;9.73;;
7324;SDS011;3703;48.016;7.802;2023-08-21T08:25:49;13.73;;;10.20;;
7324;SDS011;3703;48.016;7.802;2023-08-21T08:28:16;12.03;;;9.87;;
7324;SDS011;3703;48.016;7.802;2023-08-21T08:30:44;12.27;;;9.77;;
7324;SDS011;3703;48.016;7.802;2023-08-21T08:33:12;12.83;;;10.13;;
7324;SDS011;3703;48.016;7.802;2023-08-21T08:35:39;13.53;;;10.20;;
7324;SDS011;3703;48.016;7.802;2023-08-21T08:38:07;19.33;;;10.80;;
7324;SDS011;3703;48.016;7.802;2023-08-21T08:40:35;11.87;;;10.30;;
7324;SDS011;3703;48.016;7.802;2023-08-21T08:43:09;12.87;;;10.87;;
7324;SDS011;3703;48.016;7.802;2023-08-21T08:45:47;13.87;;;10.63;;
7324;SDS011;3703;48.016;7.802;2023-08-21T08:48:15;13.27;;;10.30;;
7324;SDS011;3703;48.016;7.802;2023-08-21T08:50:42;15.23;;;10.90;;
7324;SDS011;3703;48.016;7.802;2023-08-21T08:53:26;12.50;;;10.23;;
7324;SDS011;3703;48.016;7.802;2023-08-21T08:55:54;14.10;;;10.80;;
7324;SDS011;3703;48.016;7.802;2023-08-21T08:58:22;11.67;;;10.07;;
7324;SDS011;3703;48.016;7.802;2023-08-21T09:00:49;12.30;;;10.00;;
7324;SDS011;3703;48.016;7.802;2023-08-21T09:03:16;13.20;;;10.27;;
7324;SDS011;3703;48.016;7.802;2023-08-21T09:05:43;11.47;;;9.97;;
7324;SDS011;3703;48.016;7.802;2023-08-21T09:08:11;11.80;;;10.33;;
7324;SDS011;3703;48.016;7.802;2023-08-21T09:10:41;13.63;;;10.60;;
7324;SDS011;3703;48.016;7.802;2023-08-21T09:13:13;13.40;;;11.47;;
7324;SDS011;3703;48.016;7.802;2023-08-21T09:15:42;11.77;;;10.57;;
7324;SDS011;3703;48.016;7.802;2023-08-21T09:18:13;13.03;;;10.10;;
7324;SDS011;3703;48.016;7.802;2023-08-21T09:20:41;11.80;;;10.10;;
7324;SDS011;3703;48.016;7.802;2023-08-21T09:23:09;17.17;;;10.93;;
7324;SDS011;3703;48.016;7.802;2023-08-21T09:25:43;11.37;;;10.27;;
7324;SDS011;3703;48.016;7.802;2023-08-21T09:28:12;15.93;;;11.13;;
7324;SDS011;3703;48.016;7.802;2023-08-21T09:30:44;12.33;;;10.70;;
7324;SDS011;3703;48.016;7.802;2023-08-21T09:33:12;13.17;;;10.47;;
7324;SDS011;3703;48.016;7.802;2023-08-21T09:35:40;13.17;;;10.40;;
7324;SDS011;3703;48.016;7.802;2023-08-21T09:38:09;12.67;;;9.73;;
7324;SDS011;3703;48.016;7.802;2023-08-21T09:40:39;12.77;;;9.50;;
7324;SDS011;3703;48.016;7.802;2023-08-21T09:43:08;11.93;;;9.90;;
7324;SDS011;3703;48.016;7.802;2023-08-21T09:45:37;10.87;;;9.77;;
7324;SDS011;3703;48.016;7.802;2023-08-21T09:48:05;10.33;;;9.13;;
7324;SDS011;3703;48.016;7.802;2023-08-21T09:50:34;11.23;;;9.90;;
7324;SDS011;3703;48.016;7.802;2023-08-21T09:53:03;12.30;;;9.37;;
7324;SDS011;3703;48.016;7.802;2023-08-21T09:55:33;10.93;;;9.80;;
7324;SDS011;3703;48.016;7.802;2023-08-21T09:58:02;11.47;;;9.43;;
7324;SDS011;3703;48.016;7.802;2023-08-21T10:00:30;13.30;;;9.70;;
7324;SDS011;3703;48.016;7.802;2023-08-21T10:03:00;12.97;;;9.43;;
7324;SDS011;3703;48.016;7.802;2023-08-21T10:05:30;12.97;;;8.77;;
7324;SDS011;3703;48.016;7.802;2023-08-21T10:07:59;12.10;;;9.40;;
7324;SDS011;3703;48.016;7.802;2023-08-21T10:10:29;9.73;;;8.47;;
7324;SDS011;3703;48.016;7.802;2023-08-21T10:12:57;8.87;;;8.07;;
7324;SDS011;3703;48.016;7.802;2023-08-21T10:15:26;10.20;;;8.57;;
7324;SDS011;3703;48.016;7.802;2023-08-21T10:17:55;10.13;;;8.27;;
7324;SDS011;3703;48.016;7.802;2023-08-21T10:20:24;9.57;;;8.67;;
7324;SDS011;3703;48.016;7.802;2023-08-21T10:22:52;9.07;;;7.70;;
7324;SDS011;3703;48.016;7.802;2023-08-21T10:25:22;10.50;;;9.20;;
7324;SDS011;3703;48.016;7.802;2023-08-21T10:27:51;8.20;;;7.37;;
7324;SDS011;3703;48.016;7.802;2023-08-21T10:30:21;8.90;;;8.10;;
7324;SDS011;3703;48.016;7.802;2023-08-21T10:32:52;11.63;;;8.57;;
7324;SDS011;3703;48.016;7.802;2023-08-21T10:35:28;12.97;;;8.27;;
7324;SDS011;3703;48.016;7.802;2023-08-21T10:38:09;8.77;;;7.73;;
7324;SDS011;3703;48.016;7.802;2023-08-21T10:40:38;9.57;;;7.90;;
7324;SDS011;3703;48.016;7.802;2023-08-21T10:46:04;9.13;;;8.17;;
7324;SDS011;3703;48.016;7.802;2023-08-21T10:48:33;9.80;;;8.00;;
7324;SDS011;3703;48.016;7.802;2023-08-21T10:51:00;9.70;;;7.80;;
7324;SDS011;3703;48.016;7.802;2023-08-21T10:53:30;8.97;;;8.00;;
7324;SDS011;3703;48.016;7.802;2023-08-21T10:56:00;10.30;;;8.40;;
7324;SDS011;3703;48.016;7.802;2023-08-21T10:58:38;11.53;;;8.30;;
7324;SDS011;3703;48.016;7.802;2023-08-21T11:01:06;10.20;;;7.93;;
7324;SDS011;3703;48.016;7.802;2023-08-21T11:03:35;8.30;;;7.40;;
7324;SDS011;3703;48.016;7.802;2023-08-21T11:06:05;8.43;;;7.50;;
7324;SDS011;3703;48.016;7.802;2023-08-21T11:08:34;10.50;;;7.90;;
7324;SDS011;3703;48.016;7.802;2023-08-21T11:11:03;10.03;;;7.43;;
7324;SDS011;3703;48.016;7.802;2023-08-21T11:13:31;11.40;;;7.80;;
7324;SDS011;3703;48.016;7.802;2023-08-21T11:15:59;10.47;;;7.60;;
7324;SDS011;3703;48.016;7.802;2023-08-21T11:18:30;9.60;;;7.67;;
7324;SDS011;3703;48.016;7.802;2023-08-21T11:21:11;9.07;;;7.57;;
7324;SDS011;3703;48.016;7.802;2023-08-21T11:23:39;9.53;;;7.57;;
7324;SDS011;3703;48.016;7.802;2023-08-21T11:26:10;8.97;;;7.63;;
7324;SDS011;3703;48.016;7.802;2023-08-21T11:28:38;9.10;;;7.97;;
7324;SDS011;3703;48.016;7.802;2023-08-21T11:31:05;10.20;;;8.07;;
7324;SDS011;3703;48.016;7.802;2023-08-21T11:33:36;10.33;;;7.97;;
7324;SDS011;3703;48.016;7.802;2023-08-21T11:36:04;9.27;;;7.80;;
7324;SDS011;3703;48.016;7.802;2023-08-21T11:38:33;9.10;;;8.20;;
7324;SDS011;3703;48.016;7.802;2023-08-21T11:41:00;9.50;;;8.37;;
7324;SDS011;3703;48.016;7.802;2023-08-21T11:43:35;8.67;;;7.63;;
7324;SDS011;3703;48.016;7.802;2023-08-21T11:46:03;11.93;;;8.47;;
7324;SDS011;3703;48.016;7.802;2023-08-21T11:48:31;8.77;;;7.33;;
7324;SDS011;3703;48.016;7.802;2023-08-21T11:51:00;11.67;;;7.53;;
7324;SDS011;3703;48.016;7.802;2023-08-21T11:53:47;12.33;;;7.30;;
7324;SDS011;3703;48.016;7.802;2023-08-21T11:56:15;8.40;;;7.10;;
7324;SDS011;3703;48.016;7.802;2023-08-21T11:58:49;12.87;;;7.67;;
7324;SDS011;3703;48.016;7.802;2023-08-21T12:01:16;8.97;;;8.03;;
7324;SDS011;3703;48.016;7.802;2023-08-21T12:03:44;8.40;;;7.50;;
7324;SDS011;3703;48.016;7.802;2023-08-21T12:06:12;11.33;;;7.90;;
7324;SDS011;3703;48.016;7.802;2023-08-21T12:08:39;11.70;;;8.50;;
7324;SDS011;3703;48.016;7.802;2023-08-21T12:11:07;9.73;;;7.97;;
7324;SDS011;3703;48.016;7.802;2023-08-21T12:13:34;9.73;;;7.90;;
7324;SDS011;3703;48.016;7.802;2023-08-21T12:16:02;9.50;;;7.93;;
7324;SDS011;3703;48.016;7.802;2023-08-21T12:18:29;9.13;;;7.37;;
7324;SDS011;3703;48.016;7.802;2023-08-21T12:20:56;10.93;;;8.00;;
7324;SDS011;3703;48.016;7.802;2023-08-21T12:23:23;8.20;;;7.40;;
7324;SDS011;3703;48.016;7.802;2023-08-21T12:25:52;8.70;;;7.60;;
7324;SDS011;3703;48.016;7.802;2023-08-21T12:28:20;9.87;;;8.87;;
7324;SDS011;3703;48.016;7.802;2023-08-21T12:30:47;9.00;;;7.77;;
7324;SDS011;3703;48.016;7.802;2023-08-21T12:33:14;9.35;;;8.32;;
7324;SDS011;3703;48.016;7.802;2023-08-21T12:35:41;8.65;;;7.40;;
7324;SDS011;3703;48.016;7.802;2023-08-21T12:38:10;8.57;;;7.57;;
7324;SDS011;3703;48.016;7.802;2023-08-21T12:40:38;8.77;;;7.35;;
7324;SDS011;3703;48.016;7.802;2023-08-21T12:43:06;13.80;;;7.78;;
7324;SDS011;3703;48.016;7.802;2023-08-21T12:45:35;12.85;;;8.25;;
7324;SDS011;3703;48.016;7.802;2023-08-21T12:48:03;10.70;;;8.05;;
7324;SDS011;3703;48.016;7.802;2023-08-21T12:50:31;9.20;;;7.18;;
7324;SDS011;3703;48.016;7.802;2023-08-21T12:52:59;8.95;;;7.95;;
7324;SDS011;3703;48.016;7.802;2023-08-21T12:55:26;8.80;;;7.50;;
7324;SDS011;3703;48.016;7.802;2023-08-21T12:57:55;10.52;;;7.57;;
7324;SDS011;3703;48.016;7.802;2023-08-21T13:00:22;7.63;;;6.93;;
7324;SDS011;3703;48.016;7.802;2023-08-21T13:02:50;7.90;;;7.10;;
7324;SDS011;3703;48.016;7.802;2023-08-21T13:05:18;10.65;;;7.55;;
7324;SDS011;3703;48.016;7.802;2023-08-21T13:07:45;9.65;;;7.20;;
7324;SDS011;3703;48.016;7.802;2023-08-21T13:10:12;13.93;;;7.68;;
7324;SDS011;3703;48.016;7.802;2023-08-21T13:12:39;9.15;;;7.30;;
7324;SDS011;3703;48.016;7.802;2023-08-21T13:15:07;10.45;;;6.95;;
7324;SDS011;3703;48.016;7.802;2023-08-21T13:17:34;7.78;;;6.97;;
7324;SDS011;3703;48.016;7.802;2023-08-21T13:20:03;8.82;;;6.80;;
7324;SDS011;3703;48.016;7.802;2023-08-21T13:22:43;8.90;;;6.65;;
7324;SDS011;3703;48.016;7.802;2023-08-21T13:25:12;10.23;;;7.55;;
7324;SDS011;3703;48.016;7.802;2023-08-21T13:27:39;8.48;;;7.35;;
7324;SDS011;3703;48.016;7.802;2023-08-21T13:30:07;10.40;;;6.85;;
7324;SDS011;3703;48.016;7.802;2023-08-21T13:32:35;13.40;;;6.85;;
7324;SDS011;3703;48.016;7.802;2023-08-21T13:35:04;9.32;;;6.72;;
7324;SDS011;3703;48.016;7.802;2023-08-21T13:37:34;10.50;;;6.40;;
7324;SDS011;3703;48.016;7.802;2023-08-21T13:40:01;8.45;;;6.57;;
7324;SDS011;3703;48.016;7.802;2023-08-21T13:42:34;6.85;;;6.15;;
7324;SDS011;3703;48.016;7.802;2023-08-21T13:45:06;8.77;;;6.18;;
7324;SDS011;3703;48.016;7.802;2023-08-21T13:47:36;8.05;;;6.38;;
7324;SDS011;3703;48.016;7.802;2023-08-21T13:50:06;7.28;;;6.57;;
7324;SDS011;3703;48.016;7.802;2023-08-21T13:52:34;7.28;;;6.57;;
7324;SDS011;3703;48.016;7.802;2023-08-21T13:55:02;9.15;;;5.85;;
7324;SDS011;3703;48.016;7.802;2023-08-21T13:57:30;9.45;;;6.38;;
7324;SDS011;3703;48.016;7.802;2023-08-21T13:59:58;7.32;;;6.47;;
7324;SDS011;3703;48.016;7.802;2023-08-21T14:02:25;6.82;;;5.88;;
7324;SDS011;3703;48.016;7.802;2023-08-21T14:04:52;7.72;;;5.53;;
7324;SDS011;3703;48.016;7.802;2023-08-21T14:07:25;9.15;;;6.25;;
7324;SDS011;3703;48.016;7.802;2023-08-21T14:09:52;8.27;;;6.18;;
7324;SDS011;3703;48.016;7.802;2023-08-21T14:12:19;8.18;;;6.35;;
7324;SDS011;3703;48.016;7.802;2023-08-21T14:14:46;9.65;;;6.10;;
7324;SDS011;3703;48.016;7.802;2023-08-21T14:17:13;7.75;;;6.18;;
7324;SDS011;3703;48.016;7.802;2023-08-21T14:19:40;8.05;;;5.85;;
7324;SDS011;3703;48.016;7.802;2023-08-21T14:22:08;7.25;;;5.63;;
7324;SDS011;3703;48.016;7.802;2023-08-21T14:24:36;8.43;;;5.68;;
7324;SDS011;3703;48.016;7.802;2023-08-21T14:27:03;6.03;;;4.70;;
7324;SDS011;3703;48.016;7.802;2023-08-21T14:29:30;7.85;;;5.78;;
7324;SDS011;3703;48.016;7.802;2023-08-21T14:31:57;7.63;;;5.68;;
7324;SDS011;3703;48.016;7.802;2023-08-21T14:34:25;6.75;;;5.32;;
7324;SDS011;3703;48.016;7.802;2023-08-21T14:36:53;7.25;;;5.57;;
7324;SDS011;3703;48.016;7.802;2023-08-21T14:39:21;8.55;;;6.07;;
7324;SDS011;3703;48.016;7.802;2023-08-21T14:41:54;6.60;;;5.90;;
7324;SDS011;3703;48.016;7.802;2023-08-21T14:44:22;6.75;;;5.70;;
7324;SDS011;3703;48.016;7.802;2023-08-21T14:46:51;6.70;;;5.32;;
7324;SDS011;3703;48.016;7.802;2023-08-21T14:49:20;8.05;;;5.47;;
7324;SDS011;3703;48.016;7.802;2023-08-21T14:51:48;10.70;;;6.03;;
7324;SDS011;3703;48.016;7.802;2023-08-21T14:54:15;7.13;;;5.90;;
7324;SDS011;3703;48.016;7.802;2023-08-21T14:56:42;6.53;;;5.78;;
7324;SDS011;3703;48.016;7.802;2023-08-21T14:59:10;8.10;;;5.43;;
7324;SDS011;3703;48.016;7.802;2023-08-21T15:01:58;7.18;;;5.50;;
7324;SDS011;3703;48.016;7.802;2023-08-21T15:04:43;8.65;;;6.68;;
7324;SDS011;3703;48.016;7.802;2023-08-21T15:07:29;6.78;;;6.00;;
7324;SDS011;3703;48.016;7.802;2023-08-21T15:10:15;7.63;;;5.47;;
7324;SDS011;3703;48.016;7.802;2023-08-21T15:13:01;6.47;;;5.77;;
7324;SDS011;3703;48.016;7.802;2023-08-21T15:15:48;7.70;;;5.00;;
7324;SDS011;3703;48.016;7.802;2023-08-21T15:18:34;8.30;;;5.47;;
7324;SDS011;3703;48.016;7.802;2023-08-21T15:21:20;7.27;;;5.27;;
7324;SDS011;3703;48.016;7.802;2023-08-21T15:24:06;7.47;;;5.33;;
7324;SDS011;3703;48.016;7.802;2023-08-21T15:26:52;8.23;;;5.40;;
7324;SDS011;3703;48.016;7.802;2023-08-21T15:29:37;7.33;;;5.60;;